Orbital elements of FENGYUN 1C DEB
| Launched | 9 May 1999 |
| Flight ended | – |
| Launch site | Taiyuan Space Center, PRC |
| Owner | People's Republic of China |
| NORAD ID | 30689 |
| Date fetched |
Epoch osculation |
Inc. [°] |
Ecc. | RA asc node [hr] |
Arg Peri. [°] |
Mean anom [°] |
Mean motion [rev/day] |
Abs. mag |
| Date fetched |
Epoch osculation |
Inc. [°] |
Ecc. | RA asc node [hr] |
Arg Peri. [°] |
Mean anom [°] |
Mean motion [rev/day] |
Abs. mag |
| 2026 May 05 17:57 | 2026 May 05 11:01:48 | 98.7231 | 0.01116 | 7.5128 | 55.2842 | 100.2813 | 14.12026 | – |
| 2026 May 04 17:57 | 2026 Apr 30 10:16:17 | 98.7229 | 0.01118 | 7.1863 | 69.4122 | 100.2813 | 14.12026 | – |
| 2026 May 03 17:57 | 2026 Apr 30 10:16:17 | 98.7229 | 0.01118 | 7.1863 | 69.4122 | 100.2813 | 14.12026 | – |
| 2026 May 02 17:57 | 2026 Apr 30 10:16:17 | 98.7229 | 0.01118 | 7.1863 | 69.4122 | 100.2813 | 14.12026 | – |
| 2026 May 01 17:56 | 2026 Apr 30 10:16:17 | 98.7229 | 0.01118 | 7.1863 | 69.4122 | 100.2813 | 14.12026 | – |
| 2026 Apr 30 17:56 | 2026 Apr 30 10:16:17 | 98.7229 | 0.01118 | 7.1863 | 69.4122 | 100.2813 | 14.12026 | – |
| 2026 Apr 29 17:57 | 2026 Apr 24 12:59:30 | 98.7226 | 0.01118 | 6.8044 | 85.9488 | 100.2813 | 14.12026 | – |
| 2026 Apr 28 17:56 | 2026 Apr 24 12:59:30 | 98.7226 | 0.01118 | 6.8044 | 85.9488 | 100.2813 | 14.12026 | – |
| 2026 Apr 27 17:58 | 2026 Apr 24 12:59:30 | 98.7226 | 0.01118 | 6.8044 | 85.9488 | 100.2813 | 14.12026 | – |
| 2026 Apr 26 17:58 | 2026 Apr 24 12:59:30 | 98.7226 | 0.01118 | 6.8044 | 85.9488 | 100.2813 | 14.12026 | – |
| 2026 Apr 25 17:58 | 2026 Apr 24 12:59:30 | 98.7226 | 0.01118 | 6.8044 | 85.9488 | 100.2813 | 14.12026 | – |
| 2026 Apr 24 17:59 | 2026 Apr 24 12:59:30 | 98.7226 | 0.01118 | 6.8044 | 85.9488 | 100.2813 | 14.12026 | – |
| 2026 Apr 23 17:57 | 2026 Apr 19 12:14:01 | 98.7225 | 0.01117 | 6.4780 | 100.0871 | 100.2813 | 14.12026 | – |
| 2026 Apr 22 17:57 | 2026 Apr 19 12:14:01 | 98.7225 | 0.01117 | 6.4780 | 100.0871 | 100.2813 | 14.12026 | – |
| 2026 Apr 21 17:57 | 2026 Apr 19 12:14:01 | 98.7225 | 0.01117 | 6.4780 | 100.0871 | 100.2813 | 14.12026 | – |
| 2026 Apr 20 17:57 | 2026 Apr 19 12:14:01 | 98.7225 | 0.01117 | 6.4780 | 100.0871 | 100.2813 | 14.12026 | – |
| 2026 Apr 19 17:58 | 2026 Apr 19 12:14:01 | 98.7225 | 0.01117 | 6.4780 | 100.0871 | 100.2813 | 14.12026 | – |
| 2026 Apr 18 17:56 | 2026 Apr 13 06:04:37 | 98.7220 | 0.01115 | 6.0721 | 117.6813 | 100.2813 | 14.12026 | – |
| 2026 Apr 16 17:57 | 2026 Apr 13 06:04:37 | 98.7220 | 0.01115 | 6.0721 | 117.6813 | 100.2813 | 14.12026 | – |
| 2026 Apr 14 17:57 | 2026 Apr 13 06:04:37 | 98.7220 | 0.01115 | 6.0721 | 117.6813 | 100.2813 | 14.12026 | – |
| 2026 Apr 13 17:57 | 2026 Apr 13 06:04:37 | 98.7220 | 0.01115 | 6.0721 | 117.6813 | 100.2813 | 14.12026 | – |
| 2026 Apr 12 17:57 | 2026 Apr 08 10:57:53 | 98.7217 | 0.01113 | 5.7610 | 131.2128 | 100.2813 | 14.12026 | – |
| 2026 Apr 11 17:57 | 2026 Apr 08 10:57:53 | 98.7217 | 0.01113 | 5.7610 | 131.2128 | 100.2813 | 14.12026 | – |
| 2026 Apr 10 17:58 | 2026 Apr 08 10:57:53 | 98.7217 | 0.01113 | 5.7610 | 131.2128 | 100.2813 | 14.12026 | – |
| 2026 Apr 09 18:01 | 2026 Apr 08 10:57:53 | 98.7217 | 0.01113 | 5.7610 | 131.2128 | 100.2813 | 14.12026 | – |
| 2026 Apr 08 17:57 | 2026 Apr 08 10:57:53 | 98.7217 | 0.01113 | 5.7610 | 131.2128 | 100.2813 | 14.12026 | – |